AirNav   Phillips 66 Aviation Fuel
 
 1017 users online  

T30 Mc Kinley Field Airport
Pearsall, Texas, USA

GOING TO PEARSALL?


FAA INFORMATION EFFECTIVE 26 APRIL 2018

Location

FAA Identifier: T30
Lat/Long: 28-49-20.1000N / 099-06-32.5000W
28-49.335000N / 099-06.541667W
28.8222500 / -99.1090278
(estimated)
Elevation: 586.4 ft. / 178.7 m (surveyed)
Variation: 07E (1980)
From city: 4 miles S of PEARSALL, TX
Time zone: UTC -5 (UTC -6 during Standard Time)
Zip code: 78061

Airport Operations

Airport use: Open to the public
Activation date: 09/1955
Control tower: no
ARTCC: HOUSTON CENTER
FSS: SAN ANGELO FLIGHT SERVICE STATION
NOTAMs facility: SJT (NOTAM-D service available)
Attendance: CONTINUOUS
Wind indicator: lighted
Segmented circle: yes
Lights: ACTVT LIRL RY 13/31 - CTAF OR CALL 830-334-7306.
Beacon: white-green (lighted land airport)
Operates sunset to sunrise.

Airport Communications

CTAF/UNICOM: 122.8
  • APCH/DEP SERVICE PROVIDED BY HOUSTON ARTCC ON FREQS 134.6/322.5 (THREE RIVERS RCAG).

Nearby radio navigation aids

VOR radial/distance  VOR name  Freq  Var
COTr352/21.6COTULLA VORTAC115.8009E

 
NDB name  Hdg/Dist  Freq  Var  ID
DEVINE198/21.035907EHHH .... .... ....
HONDO166/33.232908EHMA .... -- .-
UVALDE116/38.828107EUVA ..- ...- .-
LA PRYOR090/39.722309ELKX .-.. -.- -..-

Airport Services

Fuel available: 100LL JET-A
Parking: hangars and tiedowns
Airframe service: NONE
Powerplant service: NONE
Bottled oxygen: NONE
Bulk oxygen: NONE

Runway Information

Runway 13/31

Dimensions: 5027 x 60 ft. / 1532 x 18 m
Surface: asphalt, in good condition
Weight bearing capacity: 
Single wheel: 15.0, ESTIMATED.
Runway edge lights: low intensity
RY 13/31 NSTD LIRL; SPACING 20 FT FM EDGE & 300 FT BTN LGTS. NSTD DSPLCD THLD LGTS.
Runway edge markings: RY 13/31 NUMBERS & CNTRLN EXTREMELY FADED.
RUNWAY 13  RUNWAY 31
Latitude: 28-49.639250N28-49.030833N
Longitude: 099-06.861867W099-06.221767W
Elevation: 586.4 ft.553.8 ft.
Gradient: 0.6%0.6%
Traffic pattern: leftleft
Runway heading: 130 magnetic, 137 true310 magnetic, 317 true
Displaced threshold: 168 ft.154 ft.
Markings: NSTD, in poor conditionNSTD, in poor condition
Touchdown point: yes, no lightsyes, no lights
Obstructions: 15 ft. road, 210 ft. from runway, 120 ft. right of centerline
APCH RATIO 25:1 TO DSPLCD THLD; +15 FT ROAD 378 FT FM DSPLCD THLD 120 FT RIGHT OF CNTRLN.
60 ft. pline, 2120 ft. from runway, 32:1 slope to clear
RWY 31 APCH RATIO 37:1 TO DSPLCD THR.

Airport Ownership and Management from official FAA records

Ownership: Privately-owned
Owner: AERIAL LLC
BOX 764
PEARSALL, TX 78061
Phone 830-334-7306
Manager: IKE & NATHAN MC KINLEY
BOX 781
PEARSALL, TX 78061
Phone 830-334-7306
ALT MGR NUMBER 830-334-7789 OR 210-542-0093

Airport Operational Statistics

Aircraft based on the field: 9
Single engine airplanes: 8
Helicopters: 1
    
Aircraft operations: avg 74/week *
84% local general aviation
16% transient general aviation
* for 12-month period ending 14 October 2016

Instrument Procedures

NOTE: All procedures below are presented as PDF files. If you need a reader for these files, you should download the free Adobe Reader.

NOT FOR NAVIGATION. Please procure official charts for flight.
FAA instrument procedures published for use from 26 April 2018 at 901Z to 24 May 2018 at 0900Z.

 
IAPs - Instrument Approach Procedures
VOR/DME OR GPS-A   download (127KB)
NOTE: Special Take-Off Minimums/Departure Procedures apply   download (105KB)

Other nearby airports with instrument procedures:

23R - Devine Municipal Airport (21 nm NE)
KCOT - Cotulla-La Salle County Airport (23 nm S)
KPEZ - Pleasanton Municipal Airport (32 nm E)
KHDO - South Texas Regional Airport at Hondo (32 nm N)
KCVB - Castroville Municipal Airport (34 nm NE)
 
Loc | Ops | Rwys | IFR | FBO | Links
Com | Nav | Svcs | Stats | Notes

AirNav Hotels Sweepstakes
 
Area around T30 (Mc Kinley Field Airport)
 
Road maps at: MapQuest Bing Google
 
Aerial photo
WARNING: Photo may not be current or correct
Aerial photo of T30 (Mc Kinley Field Airport)
Photo by Murray McKinley
Photo taken 23-Apr-2010
looking southeast.

Do you have a better or more recent aerial photo of Mc Kinley Field Airport that you would like to share? If so, please send us your photo.

 
Sectional chart

 
Airport distance calculator
Flying to Mc Kinley Field Airport? Find the distance to fly.

From to T30

Sunrise and sunset
Times for 23-May-2018
 Local
(UTC-5)
 Zulu
(UTC)
Morning civil twilight06:1611:16
Sunrise06:4211:42
Sunset20:2401:24
Evening civil twilight20:5001:50

Current date and time
Zulu (UTC)  24-May-2018 00:16:13
Local (UTC-5)  23-May-2018 19:16:13
 
METAR
KCOT 
23nm S 
232353Z AUTO 13013KT 10SM FEW080 34/17 A2988 RMK AO2 SLP112 T03390172 10361 20306 56010
KPEZ 
32nm E 
232355Z AUTO 11011G16KT 080V140 10SM SCT065 SCT075 BKN100 31/20 A2993 RMK AO2 T03080195 10352 20304
KHDO 
33nm N 
232351Z AUTO 12010KT 10SM CLR 32/21 A2994 RMK AO2 SLP121 T03220206 10333 20300 56013
KCVB 
34nm NE 
232355Z AUTO 11009KT 10SM CLR 32/15 A2994 RMK AO2 T03210154 10329 20294
KUVA 
41nm NW 
232355Z AUTO 11010KT 10SM CLR 32/18 A2993 RMK AO2 T03150178 10320 20292
KCZT 
42nm SW 
119.625
232355Z AUTO 10008G15KT 10SM SCT090 33/16 A2987 RMK AO2
KSKF 
43nm NE 
232356Z AUTO 08015KT 10SM CLR 30/21 A2992 RMK AO2 SLP125 T03020207 10330 20300 56012 $
KSSF 
46nm NE 
232353Z 12014KT 10SM CLR 31/21 A2992 RMK AO2 SLP120 T03110211 10344 20300 55009
TAF
KSKF 
43nm NE 
232209Z 2322/2424 15009KT 9999 SCT035 QNH2991INS TEMPO 2323/2401 10015G25KT BECMG 2406/2407 17006KT 9999 BKN006 QNH3004INS TEMPO 2408/2412 4800 BR BKN004 BECMG 2414/2415 16006KT 9999 SCT018 BKN030 QNH3007INS BECMG 2418/2419 15009KT 9999 SCT050 QNH2999INS TX33/2323Z TN22/2411Z
KSSF 
46nm NE 
231732Z 2318/2418 16009KT P6SM SCT040 FM241100 15005KT P6SM BKN010 FM241600 15004KT P6SM SCT040
NOTAMs
Click for the latest NOTAMs
NOTAMs are issued by the DoD/FAA and will open in a separate window not controlled by AirNav.

 

 
 

FBO, Fuel Providers, and Aircraft Ground Support

  
 Business Name 
 
 Contact 
 
 Services / Description 
 
Fuel Prices
 
Comments
  
Mc Kinley Aerial Service 830-334-7789
no information available

If you are affiliated with Mc Kinley Aerial Service and would like to show here your services, contact info, web link, logo, and more, click here
100LL Jet A
AS $4.95 $3.95 
 Updated 15-May-2018
 
   write
AS=Assisted/Self Service
Update Fuel Prices
 

Would you like to see your business listed on this page?

 If your business provides an interesting product or service to pilots, flight crews, aircraft, or users of the Mc Kinley Field Airport, you should consider listing it here.  To start the listing process, click on the button below
 
Add a business
 

Other Pages about Mc Kinley Field Airport

Update a link
 
Copyright © AirNav, LLC. All rights reserved. Privacy Policy  Contact